createdAt,value
2022-10-30T00:01:58.151Z,12.3
2022-10-30T00:04:00.187Z,12.3
2022-10-30T00:06:00.801Z,12.3
2022-10-30T00:07:54.040Z,12.2
2022-10-30T00:10:00.523Z,12.3
2022-10-30T00:13:56.671Z,12.2
2022-10-30T00:15:59.209Z,12.1
2022-10-30T00:18:01.018Z,12.1
2022-10-30T00:19:57.787Z,12.1
2022-10-30T00:25:57.286Z,12
2022-10-30T00:27:59.425Z,12
2022-10-30T00:31:57.710Z,12.1
2022-10-30T00:36:00.457Z,12.1
2022-10-30T00:37:54.064Z,12.1
2022-10-30T00:43:55.942Z,12
2022-10-30T00:49:56.350Z,11.9
2022-10-30T00:52:00.663Z,11.8
2022-10-30T00:54:00.742Z,11.8
2022-10-30T00:55:56.949Z,11.8
2022-10-30T01:01:55.445Z,11.9
2022-10-30T01:04:00.893Z,11.8
2022-10-30T01:07:57.390Z,11.6
2022-10-30T01:13:56.640Z,11.5
2022-10-30T01:19:58.888Z,11.6
2022-10-30T01:23:57.915Z,11.5
2022-10-30T01:25:57.742Z,11.5
2022-10-30T01:27:59.840Z,11.5
2022-10-30T01:37:54.257Z,11.7
2022-10-30T01:40:00.235Z,11.7
2022-10-30T01:43:55.501Z,11.5
2022-10-30T01:48:01.000Z,11.5
2022-10-30T01:49:54.171Z,11.5
2022-10-30T01:55:56.909Z,11.4
2022-10-30T02:00:00.837Z,11.4
2022-10-30T02:01:57.985Z,11.4
2022-10-30T02:06:00.807Z,11.6
2022-10-30T02:07:58.121Z,11.5
2022-10-30T02:09:59.718Z,11.5
2022-10-30T02:13:57.754Z,11.5
2022-10-30T02:15:59.625Z,11.5
2022-10-30T02:19:58.727Z,11.5
2022-10-30T02:24:00.632Z,11.5
2022-10-30T02:25:59.536Z,11.4
2022-10-30T02:28:00.091Z,11.3
2022-10-30T02:30:00.692Z,11.4
2022-10-30T02:31:57.919Z,11.5
2022-10-30T02:34:00.644Z,11.4
2022-10-30T02:37:58.179Z,11.2
2022-10-30T02:43:57.846Z,11.2
2022-10-30T02:46:00.791Z,11.4
2022-10-30T02:49:57.224Z,11.4
2022-10-30T02:52:00.786Z,11.4
2022-10-30T02:54:00.473Z,11.4
2022-10-30T02:55:59.328Z,11.5
2022-10-30T03:00:00.416Z,11.5
2022-10-30T03:02:01.459Z,11.4
2022-10-30T03:04:01.177Z,11.2
2022-10-30T03:06:00.802Z,11.1
2022-10-30T03:07:54.103Z,10.9
2022-10-30T03:13:57.881Z,10.8
2022-10-30T03:20:01.095Z,11
2022-10-30T03:24:01.321Z,11.4
2022-10-30T03:25:56.775Z,11.4
2022-10-30T03:29:54.332Z,11.6
2022-10-30T03:31:57.303Z,11.6
2022-10-30T03:37:57.715Z,11.4
2022-10-30T03:43:54.151Z,11.2
2022-10-30T03:49:59.340Z,10.9
2022-10-30T03:55:57.423Z,10.9
2022-10-30T03:58:00.625Z,10.9
2022-10-30T03:59:58.526Z,10.8
2022-10-30T04:01:54.311Z,10.7
2022-10-30T04:03:59.302Z,10.9
2022-10-30T04:07:57.838Z,10.7
2022-10-30T04:10:01.169Z,10.6
2022-10-30T04:11:57.368Z,10.5
2022-10-30T04:13:55.397Z,10.4
2022-10-30T04:15:58.083Z,10.4
2022-10-30T04:17:56.164Z,10.5
2022-10-30T04:19:54.582Z,10.8
2022-10-30T04:21:56.964Z,10.9
2022-10-30T04:24:03.903Z,10.7
2022-10-30T04:25:56.869Z,10.5
2022-10-30T04:27:57.688Z,10.4
2022-10-30T04:29:54.349Z,10.4
2022-10-30T04:31:57.399Z,10.4
2022-10-30T04:33:57.399Z,10.4
2022-10-30T04:35:57.398Z,10.3
2022-10-30T04:37:57.242Z,10.3
2022-10-30T04:39:54.385Z,10.3
2022-10-30T04:41:54.407Z,10.4
2022-10-30T04:44:04.097Z,10.5
2022-10-30T04:45:57.387Z,10.5
2022-10-30T04:48:00.845Z,10.5
2022-10-30T04:51:57.402Z,10.4
2022-10-30T04:53:54.384Z,10.3
2022-10-30T04:55:55.478Z,10.2
2022-10-30T04:57:57.707Z,10.3
2022-10-30T04:59:54.348Z,10.4
2022-10-30T05:01:57.381Z,10.9
2022-10-30T05:03:54.835Z,10.8
2022-10-30T05:05:56.924Z,10.9
2022-10-30T05:07:54.178Z,10.9
2022-10-30T05:09:56.956Z,10.9
2022-10-30T05:11:59.049Z,10.8
2022-10-30T05:13:54.147Z,10.7
2022-10-30T05:15:54.331Z,10.6
2022-10-30T05:17:57.729Z,10.4
2022-10-30T05:19:54.124Z,10.4
2022-10-30T05:21:54.458Z,10.4
2022-10-30T05:23:55.103Z,10.5
2022-10-30T05:25:54.132Z,10.4
2022-10-30T05:27:57.620Z,10.5
2022-10-30T05:29:57.317Z,10.6
2022-10-30T05:31:55.422Z,10.6
2022-10-30T05:33:54.768Z,10.7
2022-10-30T05:35:56.675Z,10.6
2022-10-30T05:37:56.697Z,10.7
2022-10-30T05:39:55.110Z,10.8
2022-10-30T05:41:54.472Z,10.9
2022-10-30T05:43:54.193Z,11
2022-10-30T05:45:54.422Z,10.9
2022-10-30T05:47:55.339Z,10.9
2022-10-30T05:49:54.137Z,10.9
2022-10-30T05:53:55.117Z,11
2022-10-30T05:55:57.352Z,11
2022-10-30T05:57:55.372Z,11
2022-10-30T05:59:56.728Z,10.9
2022-10-30T06:01:57.405Z,10.9
2022-10-30T06:03:54.652Z,10.8
2022-10-30T06:05:57.349Z,10.7
2022-10-30T06:07:57.316Z,10.4
2022-10-30T06:09:57.408Z,10.4
2022-10-30T06:11:56.937Z,10.3
2022-10-30T06:13:54.131Z,10.3
2022-10-30T06:15:54.437Z,10.4
2022-10-30T06:20:00.276Z,10.5
2022-10-30T06:21:54.717Z,10.6
2022-10-30T06:23:55.446Z,10.9
2022-10-30T06:25:55.399Z,11
2022-10-30T06:27:57.774Z,10.9
2022-10-30T06:29:54.438Z,11
2022-10-30T06:33:54.323Z,11
2022-10-30T06:35:54.837Z,11
2022-10-30T06:37:54.140Z,11
2022-10-30T06:39:54.304Z,11.2
2022-10-30T06:43:54.557Z,11.3
2022-10-30T06:45:55.148Z,11.3
2022-10-30T06:47:55.325Z,11.4
2022-10-30T06:49:57.369Z,11.5
2022-10-30T06:51:54.378Z,11.4
2022-10-30T06:55:58.622Z,11.4
2022-10-30T06:57:57.687Z,11.5
2022-10-30T06:59:56.959Z,11.5
2022-10-30T07:01:59.066Z,11.5
2022-10-30T07:03:55.520Z,11.5
2022-10-30T07:06:03.801Z,11.7
2022-10-30T07:07:56.733Z,11.8
2022-10-30T07:09:54.339Z,11.9
2022-10-30T07:12:01.438Z,12.1
2022-10-30T07:13:55.474Z,12
2022-10-30T07:15:54.350Z,12.1
2022-10-30T07:17:57.664Z,12.3
2022-10-30T07:19:54.531Z,12.1
2022-10-30T07:21:55.479Z,12.2
2022-10-30T07:23:55.426Z,12.4
2022-10-30T07:25:57.273Z,12.5
2022-10-30T07:27:57.926Z,12.3
2022-10-30T07:29:56.994Z,12.5
2022-10-30T07:32:03.286Z,12.5
2022-10-30T07:35:54.815Z,14
2022-10-30T07:37:57.372Z,15.5
2022-10-30T07:43:54.177Z,16.2
2022-10-30T07:47:57.008Z,16.2
2022-10-30T07:49:57.398Z,16.2
2022-10-30T07:51:57.514Z,16.2
2022-10-30T07:53:57.288Z,16.1
2022-10-30T07:57:57.236Z,15.9
2022-10-30T07:59:59.463Z,16
2022-10-30T08:01:54.298Z,16.1
2022-10-30T08:03:57.502Z,16.2
2022-10-30T08:06:04.025Z,16.3
2022-10-30T08:07:57.487Z,16.4
2022-10-30T08:09:54.339Z,16.5
2022-10-30T08:11:54.470Z,16.5
2022-10-30T08:13:54.193Z,16.5
2022-10-30T08:15:54.424Z,16.6
2022-10-30T08:17:55.006Z,16.7
2022-10-30T08:19:57.027Z,16.8
2022-10-30T08:21:56.087Z,16.9
2022-10-30T08:23:54.381Z,16.9
2022-10-30T08:25:58.984Z,16.9
2022-10-30T08:27:55.138Z,16.9
2022-10-30T08:29:54.393Z,16.9
2022-10-30T08:37:53.422Z,17.1
2022-10-30T08:39:04.240Z,17.1
2022-10-30T08:41:04.221Z,17.1
2022-10-30T08:44:18.395Z,17.2
2022-10-30T08:49:35.185Z,17.3
2022-10-30T08:51:34.388Z,17.2
2022-10-30T08:55:47.553Z,17.3
2022-10-30T09:05:59.455Z,17.6
2022-10-30T09:07:57.131Z,17.6
2022-10-30T09:11:58.614Z,17.6
2022-10-30T09:13:53.007Z,17.6
2022-10-30T09:15:55.007Z,17.7
2022-10-30T09:18:00.396Z,17.8
2022-10-30T09:19:53.014Z,17.8
2022-10-30T09:23:58.870Z,17.9
2022-10-30T09:25:53.029Z,17.9
2022-10-30T09:29:59.539Z,17.9
2022-10-30T09:31:58.356Z,17.9
2022-10-30T09:33:56.271Z,18
2022-10-30T09:35:59.081Z,18
2022-10-30T09:37:53.074Z,18
2022-10-30T09:43:52.990Z,18.1
2022-10-30T09:45:59.827Z,18.1
2022-10-30T09:48:00.026Z,18.2
2022-10-30T09:49:55.354Z,18.2
2022-10-30T09:55:56.904Z,18.2
2022-10-30T09:57:59.609Z,18.3
2022-10-30T10:01:57.227Z,18.3
2022-10-30T10:03:59.053Z,18.3
2022-10-30T10:07:53.239Z,18.3
2022-10-30T10:09:59.713Z,18.3
2022-10-30T10:11:59.145Z,18.4
2022-10-30T10:14:01.603Z,18.4
2022-10-30T10:15:57.212Z,18.4
2022-10-30T10:17:56.701Z,18.4
2022-10-30T10:19:57.037Z,18.4
2022-10-30T10:25:55.520Z,18.4
2022-10-30T10:27:53.486Z,18.4
2022-10-30T10:29:59.706Z,18.4
2022-10-30T10:31:53.289Z,18.4
2022-10-30T10:33:59.085Z,18.4
2022-10-30T10:38:00.473Z,18.5
2022-10-30T10:39:55.760Z,18.5
2022-10-30T10:43:53.382Z,18.5
2022-10-30T10:47:59.959Z,18.6
2022-10-30T10:50:00.280Z,18.6
2022-10-30T10:53:57.284Z,18.6
2022-10-30T10:55:56.950Z,18.6
2022-10-30T10:57:59.953Z,18.6
2022-10-30T11:01:54.016Z,18.6
2022-10-30T11:03:59.576Z,18.6
2022-10-30T11:05:59.502Z,18.6
2022-10-30T11:07:53.489Z,18.7
2022-10-30T11:10:01.736Z,18.7
2022-10-30T11:13:53.539Z,18.7
2022-10-30T11:15:59.890Z,18.7
2022-10-30T11:17:55.684Z,18.7
2022-10-30T11:19:54.937Z,18.7
2022-10-30T11:21:59.902Z,18.7
2022-10-30T11:25:55.854Z,18.8
2022-10-30T11:28:00.290Z,18.8
2022-10-30T11:29:57.910Z,18.8
2022-10-30T11:31:53.683Z,18.8
2022-10-30T11:35:57.517Z,18.8
2022-10-30T11:37:59.231Z,18.8
2022-10-30T11:39:59.894Z,18.9
2022-10-30T11:42:00.546Z,18.9
2022-10-30T11:43:55.862Z,18.9
2022-10-30T11:46:00.365Z,18.9
2022-10-30T11:48:02.373Z,18.9
2022-10-30T11:49:56.544Z,18.9
2022-10-30T11:51:57.093Z,18.9
2022-10-30T11:53:59.462Z,19
2022-10-30T11:56:00.804Z,19
2022-10-30T11:58:00.498Z,19
2022-10-30T12:01:57.541Z,19
2022-10-30T12:04:00.723Z,19
2022-10-30T12:06:00.589Z,19
2022-10-30T12:07:53.878Z,19
2022-10-30T12:12:03.017Z,19
2022-10-30T12:13:57.213Z,19.1
2022-10-30T12:18:01.192Z,19.1
2022-10-30T12:19:53.996Z,19.1
2022-10-30T12:22:00.909Z,19.1
2022-10-30T12:23:57.658Z,19.2
2022-10-30T12:25:57.740Z,19.2
2022-10-30T12:30:08.662Z,19.2
2022-10-30T12:31:54.119Z,19.2
2022-10-30T12:33:59.074Z,19.2
2022-10-30T12:36:01.023Z,19.2
2022-10-30T12:38:00.188Z,19.3
2022-10-30T12:39:57.837Z,19.3
2022-10-30T12:43:57.590Z,19.3
2022-10-30T12:45:57.873Z,19.4
2022-10-30T12:49:57.903Z,19.4
2022-10-30T12:53:58.066Z,19.3
2022-10-30T12:55:54.341Z,19.3
2022-10-30T12:58:00.799Z,19.3
2022-10-30T13:00:01.172Z,19.3
2022-10-30T13:01:58.154Z,19.4
2022-10-30T13:03:58.174Z,19.4
2022-10-30T13:05:59.239Z,19.4
2022-10-30T13:07:58.461Z,19.4
2022-10-30T13:09:58.035Z,19.4
2022-10-30T13:11:57.976Z,19.4
2022-10-30T13:14:01.599Z,19.4
2022-10-30T13:15:58.657Z,19.4
2022-10-30T13:19:58.219Z,19.5
2022-10-30T13:21:58.328Z,19.5
2022-10-30T13:23:58.291Z,19.5
2022-10-30T13:25:56.518Z,19.5
2022-10-30T13:27:58.259Z,19.5
2022-10-30T13:30:01.624Z,19.5
2022-10-30T13:31:54.727Z,19.5
2022-10-30T13:34:00.928Z,19.4
2022-10-30T13:36:00.642Z,19.4
2022-10-30T13:38:01.627Z,19.4
2022-10-30T13:41:58.457Z,19.5
2022-10-30T13:43:54.895Z,19.5
2022-10-30T13:45:58.812Z,19.5
2022-10-30T13:48:01.863Z,19.4
2022-10-30T13:50:01.254Z,19.4
2022-10-30T13:51:57.807Z,19.4
2022-10-30T13:53:58.748Z,19.4
2022-10-30T13:55:55.096Z,19.4
2022-10-30T13:58:01.088Z,19.3
2022-10-30T13:59:57.488Z,19.3
2022-10-30T14:02:01.522Z,19.3
2022-10-30T14:03:58.090Z,19.3
2022-10-30T14:06:01.924Z,19.3
2022-10-30T14:08:03.499Z,19.3
2022-10-30T14:11:57.296Z,19.3
2022-10-30T14:13:58.981Z,19.3
2022-10-30T14:16:00.980Z,19.3
2022-10-30T14:17:58.623Z,19.3
2022-10-30T14:19:59.021Z,19.3
2022-10-30T14:22:02.157Z,19.3
2022-10-30T14:24:02.203Z,19.3
2022-10-30T14:25:59.181Z,19.4
2022-10-30T14:28:05.790Z,19.4
2022-10-30T14:30:01.911Z,19.3
2022-10-30T14:31:59.067Z,19.3
2022-10-30T14:33:58.752Z,19.3
2022-10-30T14:35:58.591Z,19.2
2022-10-30T14:37:59.639Z,19.2
2022-10-30T14:41:58.246Z,19.2
2022-10-30T14:43:58.968Z,19.2
2022-10-30T14:45:57.462Z,19.2
2022-10-30T14:47:59.166Z,19.2
2022-10-30T14:49:59.728Z,19.1
2022-10-30T14:51:58.868Z,19.1
2022-10-30T14:53:59.543Z,19.1
2022-10-30T14:56:01.698Z,19.1
2022-10-30T14:57:56.288Z,19.1
2022-10-30T15:00:00.615Z,19.1
2022-10-30T15:01:56.227Z,19.1
2022-10-30T15:04:02.209Z,19.1
2022-10-30T15:06:01.242Z,19
2022-10-30T15:07:59.664Z,19
2022-10-30T15:10:02.332Z,19
2022-10-30T15:11:59.889Z,19
2022-10-30T15:13:56.241Z,18.9
2022-10-30T15:16:02.424Z,18.9
2022-10-30T15:18:02.572Z,18.9
2022-10-30T15:19:56.376Z,18.9
2022-10-30T15:22:03.039Z,18.9
2022-10-30T15:24:03.456Z,18.8
2022-10-30T15:26:08.198Z,18.8
2022-10-30T15:31:03.994Z,18.7
2022-10-30T15:33:00.324Z,18.7
2022-10-30T15:35:04.677Z,18.6
2022-10-30T15:37:02.587Z,18.4
2022-10-30T15:39:02.081Z,18.4
2022-10-30T15:41:03.837Z,18.5
2022-10-30T15:43:03.131Z,18.4
2022-10-30T15:45:04.914Z,18.4
2022-10-30T15:47:04.203Z,18.4
2022-10-30T15:49:04.008Z,18.1
2022-10-30T15:51:02.606Z,18
2022-10-30T15:53:04.117Z,18
2022-10-30T15:55:02.984Z,17.8
2022-10-30T15:57:31.679Z,17.7
2022-10-30T15:59:02.669Z,17.6
2022-10-30T16:01:03.463Z,17.5
2022-10-30T16:03:05.423Z,17.5
2022-10-30T16:05:01.565Z,17.4
2022-10-30T16:07:01.520Z,17.3
2022-10-30T16:09:02.526Z,17.1
2022-10-30T16:11:04.531Z,17.1
2022-10-30T16:13:02.870Z,17.1
2022-10-30T16:15:02.612Z,17
2022-10-30T16:17:02.799Z,16.9
2022-10-30T16:19:03.029Z,16.8
2022-10-30T16:21:04.309Z,16.7
2022-10-30T16:23:03.502Z,16.7
2022-10-30T16:25:02.882Z,16.7
2022-10-30T16:27:02.497Z,16.7
2022-10-30T16:29:01.125Z,16.7
2022-10-30T16:31:03.061Z,16.7
2022-10-30T16:33:03.994Z,16.7
2022-10-30T16:35:00.319Z,16.5
2022-10-30T16:37:03.929Z,16.4
2022-10-30T16:39:05.737Z,16.4
2022-10-30T16:41:03.851Z,16.4
2022-10-30T16:43:02.991Z,16.5
2022-10-30T16:46:59.340Z,16.3
2022-10-30T16:49:03.802Z,16.2
2022-10-30T16:51:05.037Z,16.1
2022-10-30T16:53:04.376Z,16
2022-10-30T16:55:02.187Z,16
2022-10-30T16:57:05.983Z,15.8
2022-10-30T16:59:02.978Z,15.8
2022-10-30T17:01:02.749Z,15.8
2022-10-30T17:03:02.294Z,16
2022-10-30T17:05:04.019Z,15.9
2022-10-30T17:07:02.732Z,16
2022-10-30T17:09:01.234Z,16
2022-10-30T17:11:02.939Z,15.9
2022-10-30T17:13:04.332Z,15.8
2022-10-30T17:14:58.901Z,15.6
2022-10-30T17:17:01.426Z,15.5
2022-10-30T17:19:04.447Z,15.5
2022-10-30T17:21:05.194Z,15.6
2022-10-30T17:23:04.549Z,15.7
2022-10-30T17:25:03.632Z,15.8
2022-10-30T17:27:04.864Z,15.9
2022-10-30T17:28:58.963Z,15.9
2022-10-30T17:31:02.688Z,15.9
2022-10-30T17:33:05.213Z,15.8
2022-10-30T17:35:01.042Z,15.8
2022-10-30T17:37:03.141Z,15.8
2022-10-30T17:39:04.000Z,15.8
2022-10-30T17:41:04.641Z,15.8
2022-10-30T17:43:04.339Z,15.8
2022-10-30T17:45:01.191Z,15.7
2022-10-30T17:47:00.473Z,15.7
2022-10-30T17:49:03.422Z,15.6
2022-10-30T17:51:02.937Z,15.5
2022-10-30T17:52:59.146Z,15.3
2022-10-30T17:55:01.255Z,15.4
2022-10-30T17:57:02.190Z,15.4
2022-10-30T17:59:04.609Z,15.5
2022-10-30T18:01:05.325Z,15.4
2022-10-30T18:02:59.139Z,15.4
2022-10-30T18:05:08.985Z,15.4
2022-10-30T18:07:02.189Z,15.4
2022-10-30T18:09:05.679Z,15.3
2022-10-30T18:11:02.620Z,15.4
2022-10-30T18:13:05.022Z,15.4
2022-10-30T18:15:02.697Z,15.4
2022-10-30T18:17:04.653Z,15.4
2022-10-30T18:19:02.338Z,15.3
2022-10-30T18:21:04.893Z,15.2
2022-10-30T18:22:59.399Z,15.3
2022-10-30T18:24:58.961Z,15.3
2022-10-30T18:26:59.528Z,15.3
2022-10-30T18:29:05.938Z,15.3
2022-10-30T18:31:04.888Z,15.3
2022-10-30T18:33:00.191Z,15.3
2022-10-30T18:35:01.260Z,15.3
2022-10-30T18:37:02.785Z,15.1
2022-10-30T18:39:03.035Z,15.1
2022-10-30T18:41:01.194Z,15.1
2022-10-30T18:43:02.875Z,15.1
2022-10-30T18:44:59.288Z,15.2
2022-10-30T18:47:02.896Z,15
2022-10-30T18:49:04.996Z,15
2022-10-30T18:51:00.751Z,14.9
2022-10-30T18:52:58.953Z,14.9
2022-10-30T18:54:59.893Z,14.9
2022-10-30T18:57:01.630Z,15
2022-10-30T18:59:02.993Z,15
2022-10-30T19:01:12.506Z,14.9
2022-10-30T19:03:01.190Z,14.8
2022-10-30T19:04:58.932Z,14.7
2022-10-30T19:06:58.993Z,14.7
2022-10-30T19:09:02.784Z,14.7
2022-10-30T19:10:59.837Z,14.8
2022-10-30T19:13:11.900Z,14.8
2022-10-30T19:15:03.914Z,14.7
2022-10-30T19:16:58.943Z,14.6
2022-10-30T19:19:04.978Z,14.6
2022-10-30T19:21:05.687Z,14.6
2022-10-30T19:23:01.771Z,14.4
2022-10-30T19:24:58.964Z,14.3
2022-10-30T19:27:04.505Z,14.2
2022-10-30T19:29:04.343Z,14.1
2022-10-30T19:31:02.810Z,13.9
2022-10-30T19:32:59.013Z,13.8
2022-10-30T19:35:05.654Z,13.7
2022-10-30T19:36:58.971Z,13.5
2022-10-30T19:39:00.845Z,13.5
2022-10-30T19:40:58.955Z,13.4
2022-10-30T19:43:05.327Z,13.3
2022-10-30T19:45:01.683Z,13.4
2022-10-30T19:46:58.964Z,13.2
2022-10-30T19:49:05.644Z,13.3
2022-10-30T19:51:04.032Z,13.4
2022-10-30T19:52:59.118Z,13.8
2022-10-30T19:55:03.524Z,14.1
2022-10-30T19:56:58.959Z,14.2
2022-10-30T19:59:02.775Z,14.2
2022-10-30T20:00:59.041Z,13.7
2022-10-30T20:03:04.772Z,13.4
2022-10-30T20:04:58.969Z,13.3
2022-10-30T20:07:02.728Z,13.3
2022-10-30T20:09:01.332Z,13.5
2022-10-30T20:11:02.687Z,13.9
2022-10-30T20:12:58.979Z,13.8
2022-10-30T20:15:01.539Z,13.7
2022-10-30T20:17:00.261Z,13.6
2022-10-30T20:18:58.963Z,13.4
2022-10-30T20:21:02.219Z,13
2022-10-30T20:23:05.642Z,12.8
2022-10-30T20:24:58.962Z,12.8
2022-10-30T20:27:00.302Z,12.7
2022-10-30T20:31:01.511Z,12.7
2022-10-30T20:32:59.232Z,12.7
2022-10-30T20:35:05.159Z,12.7
2022-10-30T20:37:00.119Z,12.7
2022-10-30T20:39:00.976Z,12.8
2022-10-30T20:41:04.039Z,12.7
2022-10-30T20:43:05.628Z,12.6
2022-10-30T20:45:02.199Z,12.5
2022-10-30T20:46:58.976Z,12.3
2022-10-30T20:49:12.027Z,12.3
2022-10-30T20:51:01.616Z,12.4
2022-10-30T20:53:00.335Z,12.3
2022-10-30T20:54:59.105Z,12.3
2022-10-30T20:57:03.578Z,12.3
2022-10-30T21:01:05.101Z,12.1
2022-10-30T21:03:04.856Z,12.1
2022-10-30T21:05:11.654Z,12.2
2022-10-30T21:07:00.916Z,12.4
2022-10-30T21:08:59.972Z,12.4
2022-10-30T21:10:58.986Z,12.5
2022-10-30T21:12:59.887Z,12.4
2022-10-30T21:14:58.979Z,12.4
2022-10-30T21:16:59.284Z,12.4
2022-10-30T21:19:00.330Z,12.5
2022-10-30T21:20:58.965Z,12.4
2022-10-30T21:22:59.061Z,12.2
2022-10-30T21:25:04.452Z,12.2
2022-10-30T21:26:58.971Z,12.1
2022-10-30T21:28:58.955Z,12.1
2022-10-30T21:31:02.311Z,12.1
2022-10-30T21:32:59.310Z,12
2022-10-30T21:34:58.982Z,11.9
2022-10-30T21:36:58.949Z,11.9
2022-10-30T21:39:03.756Z,11.8
2022-10-30T21:40:58.978Z,12.1
2022-10-30T21:43:01.307Z,12.2
2022-10-30T21:44:58.968Z,12.2
2022-10-30T21:46:58.982Z,12.2
2022-10-30T21:49:03.554Z,12.3
2022-10-30T21:51:05.167Z,12.3
2022-10-30T21:52:59.665Z,12.1
2022-10-30T21:55:05.899Z,12.3
2022-10-30T21:57:02.777Z,12.1
2022-10-30T21:58:58.963Z,12.1
2022-10-30T22:01:01.420Z,12
2022-10-30T22:03:03.113Z,12.1
2022-10-30T22:04:58.964Z,12
2022-10-30T22:07:05.339Z,12.1
2022-10-30T22:08:58.969Z,12
2022-10-30T22:10:58.993Z,12.1
2022-10-30T22:13:03.943Z,12
2022-10-30T22:15:02.782Z,12.1
2022-10-30T22:17:04.925Z,12
2022-10-30T22:18:59.010Z,11.8
2022-10-30T22:21:00.364Z,11.7
2022-10-30T22:23:00.288Z,11.7
2022-10-30T22:24:58.992Z,11.8
2022-10-30T22:27:00.440Z,11.6
2022-10-30T22:29:01.227Z,11.7
2022-10-30T22:30:58.983Z,11.6
2022-10-30T22:32:59.338Z,11.4
2022-10-30T22:35:00.457Z,11.4
2022-10-30T22:36:59.000Z,11.3
2022-10-30T22:39:06.018Z,11.4
2022-10-30T22:41:03.643Z,11.3
2022-10-30T22:43:02.414Z,11.6
2022-10-30T22:45:03.593Z,11.6
2022-10-30T22:46:58.971Z,11.6
2022-10-30T22:48:58.965Z,11.5
2022-10-30T22:51:05.592Z,11.7
2022-10-30T22:52:58.994Z,11.7
2022-10-30T22:54:58.968Z,11.6
2022-10-30T22:57:02.636Z,11.6
2022-10-30T22:59:02.287Z,11.7
2022-10-30T23:00:59.000Z,11.8
2022-10-30T23:03:01.924Z,11.6
2022-10-30T23:04:58.991Z,11.7
2022-10-30T23:07:04.841Z,11.5
2022-10-30T23:09:04.617Z,11.3
2022-10-30T23:10:59.039Z,11.3
2022-10-30T23:13:00.115Z,11.3
2022-10-30T23:14:58.989Z,11.2
2022-10-30T23:16:59.022Z,11.3
2022-10-30T23:19:02.244Z,11.4
2022-10-30T23:21:03.828Z,11.2
2022-10-30T23:22:58.995Z,11.1
2022-10-30T23:25:01.231Z,11.1
2022-10-30T23:26:59.025Z,11.1
2022-10-30T23:28:59.050Z,11
2022-10-30T23:30:59.012Z,11.1
2022-10-30T23:32:59.147Z,11.1
2022-10-30T23:35:02.472Z,11.2
2022-10-30T23:37:00.788Z,11.5
2022-10-30T23:39:00.056Z,11.4
2022-10-30T23:41:00.392Z,11.4
2022-10-30T23:43:03.656Z,11.4
2022-10-30T23:44:59.492Z,11.4
2022-10-30T23:46:59.007Z,11.4
2022-10-30T23:48:59.062Z,11.1
2022-10-30T23:51:02.761Z,11.2
2022-10-30T23:52:59.755Z,11.2
2022-10-30T23:55:02.712Z,11.4
2022-10-30T23:57:02.529Z,11.3
2022-10-30T23:59:01.321Z,11.3
